Time;durP1;ratioP1;P1;durP2;ratioP2;P2;SDS_P1;SDS_P2;PMS_P1;PMS_P2;Temp;Humidity;BMP_temperature;BMP_pressure;BME280_temperature;BME280_humidity;BME280_pressure;Samples;Min_cycle;Max_cycle;Signal;HPM_P1;HPM_P2
2021/12/29 00:01:16;;;;;;;13.48;2.20;;;9.90;83.20;;;;;;5036333;28;20045;-83
2021/12/29 00:03:44;;;;;;;13.82;2.80;;;9.90;83.20;;;;;;5035907;28;20510;-82
2021/12/29 00:06:11;;;;;;;19.33;4.90;;;9.90;83.20;;;;;;5035183;28;20395;-82
2021/12/29 00:08:38;;;;;;;57.65;18.23;;;9.90;83.20;;;;;;5035918;28;20045;-83
2021/12/29 00:11:06;;;;;;;114.75;36.95;;;9.90;83.30;;;;;;5036068;28;20045;-82
2021/12/29 00:13:33;;;;;;;44.03;17.63;;;9.90;83.30;;;;;;5036213;28;20070;-83
2021/12/29 00:16:03;;;;;;;36.20;11.93;;;9.90;83.30;;;;;;5035791;28;20513;-82
2021/12/29 00:18:33;;;;;;;26.10;9.25;;;9.80;83.30;;;;;;5036189;28;20059;-82
2021/12/29 00:21:02;;;;;;;20.88;7.57;;;9.90;83.30;;;;;;5035383;28;20049;-82
2021/12/29 00:23:30;;;;;;;18.75;7.90;;;9.80;83.30;;;;;;5035981;28;20409;-82
2021/12/29 00:26:17;;;;;;;23.95;7.55;;;9.80;83.30;;;;;;5035977;28;20053;-83
2021/12/29 00:28:44;;;;;;;19.85;6.70;;;9.80;83.30;;;;;;5034682;28;20107;-83
2021/12/29 00:31:11;;;;;;;19.27;5.57;;;9.80;83.30;;;;;;5034359;28;20418;-82
2021/12/29 00:33:38;;;;;;;16.67;5.13;;;9.80;83.30;;;;;;5020291;28;20519;-82
2021/12/29 00:36:05;;;;;;;13.68;4.85;;;9.80;83.30;;;;;;5030834;28;20056;-82
2021/12/29 00:38:32;;;;;;;15.07;5.40;;;9.80;83.20;;;;;;5035682;28;20506;-82
2021/12/29 00:40:59;;;;;;;15.77;5.07;;;9.70;83.30;;;;;;5035728;28;20045;-82
2021/12/29 00:43:26;;;;;;;13.27;4.90;;;9.70;83.30;;;;;;5035450;28;20495;-82
2021/12/29 00:45:53;;;;;;;11.23;3.85;;;9.80;83.30;;;;;;5034521;28;20046;-82
2021/12/29 00:48:24;;;;;;;14.75;4.65;;;9.70;83.30;;;;;;5035253;28;20045;-82
2021/12/29 00:50:51;;;;;;;15.82;5.00;;;9.70;83.30;;;;;;5032765;28;20055;-82
2021/12/29 00:53:18;;;;;;;10.68;3.80;;;9.70;83.30;;;;;;5035368;28;20045;-82
2021/12/29 00:55:45;;;;;;;10.00;3.75;;;9.70;83.30;;;;;;5035460;28;20045;-82
2021/12/29 00:58:12;;;;;;;12.73;3.83;;;9.60;83.40;;;;;;5035392;28;20050;-82
2021/12/29 01:00:40;;;;;;;11.90;3.47;;;9.60;83.40;;;;;;5019389;28;20455;-82
2021/12/29 01:03:09;;;;;;;13.40;3.70;;;9.60;83.40;;;;;;5030734;28;20049;-82
2021/12/29 01:05:37;;;;;;;12.10;3.88;;;9.60;83.40;;;;;;5036668;28;20057;-82
2021/12/29 01:08:04;;;;;;;12.55;3.45;;;9.60;83.40;;;;;;5035267;28;20047;-82
2021/12/29 01:10:32;;;;;;;12.18;3.03;;;9.60;83.50;;;;;;5035158;28;20075;-82
2021/12/29 01:13:02;;;;;;;14.80;4.18;;;9.60;83.50;;;;;;5035228;28;20044;-82
2021/12/29 01:15:47;;;;;;;10.98;3.13;;;9.60;83.60;;;;;;5034687;28;20045;-82
2021/12/29 01:18:14;;;;;;;16.83;3.25;;;9.60;83.60;;;;;;5031056;28;20106;-82
2021/12/29 01:20:41;;;;;;;10.45;3.20;;;9.60;83.60;;;;;;5035264;28;20041;-82
2021/12/29 01:23:08;;;;;;;12.00;3.10;;;9.60;83.60;;;;;;5034716;28;20415;-82
2021/12/29 01:25:35;;;;;;;13.65;3.00;;;9.60;83.70;;;;;;5034782;28;20049;-82
2021/12/29 01:28:02;;;;;;;14.55;3.03;;;9.60;83.70;;;;;;5034791;28;20490;-83
2021/12/29 01:30:30;;;;;;;19.38;2.88;;;9.50;83.70;;;;;;5034573;28;20064;-82
2021/12/29 01:32:57;;;;;;;8.82;3.03;;;9.60;83.70;;;;;;5033951;28;20055;-83
2021/12/29 01:35:24;;;;;;;11.35;3.35;;;9.50;83.80;;;;;;5034542;28;20049;-82
2021/12/29 01:37:51;;;;;;;13.30;3.20;;;9.50;83.80;;;;;;5034634;28;20037;-82
2021/12/29 01:40:19;;;;;;;18.40;3.40;;;9.50;83.80;;;;;;5034610;28;20059;-83
2021/12/29 01:42:46;;;;;;;11.43;2.85;;;9.50;83.90;;;;;;5034773;28;20041;-82
2021/12/29 01:45:13;;;;;;;10.10;2.72;;;9.50;83.90;;;;;;5033348;28;20055;-82
2021/12/29 01:47:41;;;;;;;11.35;3.13;;;9.50;83.90;;;;;;5034528;28;20457;-83
2021/12/29 01:50:10;;;;;;;12.73;3.13;;;9.50;84.00;;;;;;5034414;28;20045;-83
2021/12/29 01:52:39;;;;;;;14.40;2.80;;;9.50;84.00;;;;;;5034361;28;20053;-82
2021/12/29 01:55:10;;;;;;;10.77;2.80;;;9.50;84.00;;;;;;5034373;28;20045;-82
2021/12/29 01:57:38;;;;;;;12.52;3.13;;;9.50;84.00;;;;;;5017310;28;20045;-83
2021/12/29 02:00:10;;;;;;;12.40;3.08;;;9.50;84.10;;;;;;5029301;28;20128;-82
2021/12/29 02:02:38;;;;;;;12.52;2.97;;;9.50;84.10;;;;;;5033605;28;20049;-82
2021/12/29 02:05:06;;;;;;;14.57;2.97;;;9.50;84.10;;;;;;5033890;28;20049;-82
2021/12/29 02:07:33;;;;;;;10.63;3.03;;;9.50;84.10;;;;;;5033895;28;20045;-82
2021/12/29 02:10:00;;;;;;;9.10;3.00;;;9.50;84.20;;;;;;5034055;28;20049;-82
2021/12/29 02:12:27;;;;;;;6.18;2.33;;;9.50;84.20;;;;;;5033766;28;20425;-82
2021/12/29 02:14:54;;;;;;;8.77;2.55;;;9.50;84.20;;;;;;5033163;28;20087;-83
2021/12/29 02:17:21;;;;;;;13.45;2.50;;;9.50;84.20;;;;;;5033741;28;20041;-82
2021/12/29 02:19:49;;;;;;;7.68;2.38;;;9.50;84.20;;;;;;5033896;28;20051;-82
2021/12/29 02:23:12;;;;;;;12.50;2.90;;;9.50;84.30;;;;;;5033715;28;20055;-83
2021/12/29 02:27:42;;;;;;;;;;;9.50;84.30;;;;;;5018744;28;20049;-82
2021/12/29 02:30:10;;;;;;;9.25;2.35;;;9.50;84.30;;;;;;5032607;28;20396;-82
2021/12/29 02:32:38;;;;;;;15.25;2.78;;;9.50;84.30;;;;;;5033328;28;20055;-82
2021/12/29 02:35:06;;;;;;;11.15;3.03;;;9.40;84.30;;;;;;5033444;28;20052;-82
2021/12/29 02:37:33;;;;;;;15.10;3.70;;;9.50;84.40;;;;;;5033398;28;20042;-82
2021/12/29 02:40:00;;;;;;;13.73;2.75;;;9.40;84.40;;;;;;5033368;28;20046;-82
2021/12/29 02:42:30;;;;;;;11.15;2.78;;;9.40;84.40;;;;;;5033220;28;20053;-82
2021/12/29 02:45:02;;;;;;;14.40;2.63;;;9.40;84.50;;;;;;5032687;28;20045;-82
2021/12/29 02:47:29;;;;;;;11.13;2.45;;;9.40;84.50;;;;;;5033262;28;20041;-82
2021/12/29 02:49:56;;;;;;;10.10;2.08;;;9.40;84.50;;;;;;5033226;28;20044;-82
2021/12/29 02:52:24;;;;;;;13.75;2.92;;;9.40;84.50;;;;;;5033241;28;20506;-82
2021/12/29 02:54:52;;;;;;;16.23;2.17;;;9.40;84.50;;;;;;5033346;28;20510;-82
2021/12/29 02:57:20;;;;;;;10.52;2.55;;;9.40;84.50;;;;;;5032539;28;20056;-82
2021/12/29 02:59:47;;;;;;;11.30;2.80;;;9.40;84.50;;;;;;5032502;28;20048;-82
2021/12/29 03:02:14;;;;;;;15.77;2.65;;;9.40;84.60;;;;;;5033229;28;20513;-83
2021/12/29 03:04:41;;;;;;;10.02;2.40;;;9.40;84.60;;;;;;5031694;28;20134;-83
2021/12/29 03:07:09;;;;;;;8.93;2.13;;;9.40;84.60;;;;;;5032738;28;20042;-83
2021/12/29 03:09:36;;;;;;;12.00;2.50;;;9.40;84.60;;;;;;5033253;28;20053;-82
2021/12/29 03:12:03;;;;;;;15.48;2.40;;;9.40;84.60;;;;;;5032012;28;20066;-82
2021/12/29 03:14:31;;;;;;;11.88;2.10;;;9.30;84.60;;;;;;5033055;28;20053;-82
2021/12/29 03:16:58;;;;;;;12.25;2.20;;;9.40;84.60;;;;;;5032872;28;20083;-82
2021/12/29 03:19:25;;;;;;;8.57;2.60;;;9.40;84.60;;;;;;5032832;28;20548;-82
2021/12/29 03:21:52;;;;;;;14.50;2.90;;;9.30;84.70;;;;;;5033085;28;20045;-82
2021/12/29 03:24:20;;;;;;;19.65;2.65;;;9.30;84.70;;;;;;5032231;28;20055;-82
2021/12/29 03:26:47;;;;;;;11.10;2.65;;;9.30;84.70;;;;;;5032038;28;20057;-82
2021/12/29 03:29:15;;;;;;;7.97;1.80;;;9.20;84.70;;;;;;5032852;28;20041;-82
2021/12/29 03:31:43;;;;;;;9.15;2.33;;;9.30;84.70;;;;;;5032983;28;20139;-82
2021/12/29 03:34:11;;;;;;;9.55;1.98;;;9.30;84.80;;;;;;5032983;28;20417;-83
2021/12/29 03:36:38;;;;;;;7.13;2.20;;;9.30;84.70;;;;;;5017213;28;20428;-82
2021/12/29 03:39:05;;;;;;;10.52;2.28;;;9.20;84.80;;;;;;5027723;28;20046;-82
2021/12/29 03:41:32;;;;;;;8.68;2.38;;;9.20;84.80;;;;;;5032784;28;20057;-82
2021/12/29 03:44:01;;;;;;;9.52;2.10;;;9.20;84.80;;;;;;5032741;28;20048;-82
2021/12/29 03:46:28;;;;;;;12.43;2.10;;;9.20;84.80;;;;;;5032637;28;20046;-82
2021/12/29 03:48:55;;;;;;;11.55;2.40;;;9.20;84.90;;;;;;5032908;28;20047;-82
2021/12/29 03:51:23;;;;;;;13.02;2.33;;;9.20;84.90;;;;;;5032884;28;20045;-82
2021/12/29 03:53:49;;;;;;;11.25;2.40;;;9.20;84.90;;;;;;5029678;28;20052;-82
2021/12/29 03:56:16;;;;;;;7.85;2.25;;;9.20;85.00;;;;;;5032636;28;20049;-82
2021/12/29 03:58:44;;;;;;;9.35;2.08;;;9.10;85.00;;;;;;5031271;28;20045;-82
2021/12/29 04:01:13;;;;;;;10.15;2.15;;;9.10;85.00;;;;;;5032724;28;20050;-83
2021/12/29 04:03:44;;;;;;;9.23;1.98;;;9.10;85.10;;;;;;5017481;28;20045;-82
2021/12/29 04:06:14;;;;;;;10.52;2.45;;;9.10;85.10;;;;;;5031445;28;20058;-82
2021/12/29 04:08:41;;;;;;;10.15;2.33;;;9.10;85.10;;;;;;5032546;28;20050;-82
2021/12/29 04:11:13;;;;;;;10.95;1.98;;;9.10;85.10;;;;;;5032410;28;20477;-82
2021/12/29 04:13:40;;;;;;;7.25;1.80;;;9.10;85.20;;;;;;5032613;28;20045;-82
2021/12/29 04:16:15;;;;;;;12.25;2.30;;;9.10;85.20;;;;;;5032538;28;20037;-82
2021/12/29 04:19:06;;;;;;;9.45;2.17;;;9.10;85.20;;;;;;5017413;28;20044;-82
2021/12/29 04:21:35;;;;;;;9.88;2.10;;;9.10;85.30;;;;;;5036091;28;20041;-82
2021/12/29 04:24:04;;;;;;;9.35;1.88;;;9.10;85.30;;;;;;5034900;28;20502;-82
2021/12/29 04:26:33;;;;;;;10.30;1.85;;;9.00;85.30;;;;;;5035958;28;20049;-82
2021/12/29 04:29:00;;;;;;;13.05;2.33;;;9.00;85.30;;;;;;5035930;28;20037;-83
2021/12/29 04:31:27;;;;;;;8.20;2.13;;;9.10;85.40;;;;;;5035885;28;20518;-82
2021/12/29 04:33:54;;;;;;;8.60;1.95;;;9.00;85.40;;;;;;5036029;28;20054;-82
2021/12/29 04:36:24;;;;;;;13.50;2.58;;;9.00;85.40;;;;;;5035470;28;20524;-82
2021/12/29 04:38:53;;;;;;;10.07;1.80;;;9.00;85.50;;;;;;5032767;28;20565;-82
2021/12/29 04:41:21;;;;;;;10.88;1.80;;;9.00;85.50;;;;;;5034472;28;20064;-82
2021/12/29 04:43:48;;;;;;;8.82;2.13;;;9.00;85.50;;;;;;5035676;28;20128;-82
2021/12/29 04:46:18;;;;;;;14.43;2.55;;;9.00;85.50;;;;;;5035460;28;20052;-82
2021/12/29 04:48:58;;;;;;;10.00;1.92;;;9.00;85.50;;;;;;5035623;28;20124;-82
2021/12/29 04:51:34;;;;;;;14.15;1.95;;;9.00;85.60;;;;;;5035294;28;20050;-82
2021/12/29 04:54:06;;;;;;;11.75;2.33;;;9.00;85.60;;;;;;5034593;28;20057;-82
2021/12/29 04:56:34;;;;;;;12.43;1.95;;;9.00;85.60;;;;;;5035459;28;20119;-82
2021/12/29 04:59:02;;;;;;;14.10;2.65;;;9.00;85.70;;;;;;5035337;28;20524;-82
2021/12/29 05:01:30;;;;;;;14.50;2.30;;;9.00;85.70;;;;;;5035368;28;20052;-82
2021/12/29 05:03:57;;;;;;;9.50;2.28;;;9.00;85.80;;;;;;5035212;28;20452;-82
2021/12/29 05:09:10;;;;;;;8.82;2.35;;;9.00;85.80;;;;;;5030834;28;20049;-82
2021/12/29 05:11:37;;;;;;;10.23;2.15;;;9.00;85.90;;;;;;5034843;28;20046;-82
2021/12/29 05:14:04;;;;;;;13.45;2.10;;;9.00;85.90;;;;;;5035102;28;20045;-82
2021/12/29 05:16:31;;;;;;;12.55;2.05;;;9.00;86.00;;;;;;5034902;28;20536;-82
2021/12/29 05:18:58;;;;;;;14.43;2.28;;;9.00;86.00;;;;;;5035046;28;20048;-82
2021/12/29 05:21:25;;;;;;;12.35;2.28;;;9.00;86.00;;;;;;5034796;28;20071;-82
2021/12/29 05:23:53;;;;;;;14.85;2.28;;;9.10;86.10;;;;;;5034101;28;20413;-82
2021/12/29 05:26:21;;;;;;;6.68;1.95;;;9.10;86.10;;;;;;5034820;28;20045;-82
2021/12/29 05:28:48;;;;;;;12.65;2.70;;;9.10;86.10;;;;;;5034767;28;20533;-82
2021/12/29 05:31:17;;;;;;;10.32;2.38;;;9.10;86.20;;;;;;5034544;28;20049;-83
2021/12/29 05:33:44;;;;;;;9.65;2.40;;;9.10;86.20;;;;;;5034844;28;20111;-82
2021/12/29 05:36:12;;;;;;;13.73;2.65;;;9.10;86.20;;;;;;5033490;28;20048;-82
2021/12/29 05:38:39;;;;;;;13.70;2.80;;;9.10;86.20;;;;;;5034671;28;20417;-82
2021/12/29 05:41:06;;;;;;;12.68;2.38;;;9.10;86.20;;;;;;5034574;28;20068;-82
2021/12/29 05:43:33;;;;;;;11.38;2.58;;;9.10;86.20;;;;;;5034519;28;20128;-82
2021/12/29 05:46:01;;;;;;;11.48;2.30;;;9.20;86.30;;;;;;5034425;28;20041;-82
2021/12/29 05:48:28;;;;;;;15.45;2.20;;;9.10;86.30;;;;;;5034541;28;20054;-82
2021/12/29 05:50:55;;;;;;;19.70;3.38;;;9.20;86.30;;;;;;5033388;28;20049;-82
2021/12/29 05:53:22;;;;;;;15.75;2.95;;;9.20;86.30;;;;;;5034279;28;20045;-82
2021/12/29 05:55:49;;;;;;;14.43;2.97;;;9.20;86.30;;;;;;5036446;28;20053;-82
2021/12/29 05:58:16;;;;;;;25.83;3.90;;;9.20;86.40;;;;;;5034243;28;20045;-82
2021/12/29 06:00:43;;;;;;;23.58;3.80;;;9.20;86.40;;;;;;5034227;28;20545;-83
2021/12/29 06:03:11;;;;;;;24.33;3.55;;;9.20;86.40;;;;;;5033423;28;20049;-82
2021/12/29 06:05:38;;;;;;;17.48;3.50;;;9.20;86.40;;;;;;5033321;28;20057;-82
2021/12/29 06:08:06;;;;;;;29.67;3.90;;;9.20;86.40;;;;;;5033942;28;20136;-82
2021/12/29 06:10:34;;;;;;;25.77;3.50;;;9.20;86.40;;;;;;5033959;28;20047;-82
2021/12/29 06:13:01;;;;;;;22.67;3.80;;;9.30;86.40;;;;;;5034107;28;20055;-82
2021/12/29 06:15:28;;;;;;;28.65;4.70;;;9.30;86.50;;;;;;5033978;28;20045;-82
2021/12/29 06:17:55;;;;;;;33.28;6.07;;;9.20;86.50;;;;;;5033039;28;20387;-82
2021/12/29 06:20:23;;;;;;;26.92;4.60;;;9.30;86.50;;;;;;5033521;28;20048;-82
2021/12/29 06:22:50;;;;;;;29.13;4.65;;;9.30;86.50;;;;;;5033802;28;20049;-82
2021/12/29 06:25:18;;;;;;;36.25;6.47;;;9.30;86.50;;;;;;5033674;28;20045;-82
2021/12/29 06:27:46;;;;;;;35.10;5.68;;;9.30;86.50;;;;;;5033707;28;20556;-82
2021/12/29 06:30:15;;;;;;;25.77;4.72;;;9.30;86.60;;;;;;5032852;28;20045;-82
2021/12/29 06:32:43;;;;;;;34.53;5.40;;;9.30;86.60;;;;;;5034032;28;20045;-82
2021/12/29 06:35:12;;;;;;;46.72;6.38;;;9.40;86.60;;;;;;5033164;28;20049;-82
2021/12/29 06:37:39;;;;;;;32.47;5.25;;;9.30;86.60;;;;;;5033548;28;20045;-82
2021/12/29 06:40:06;;;;;;;34.08;5.78;;;9.40;86.60;;;;;;5033574;28;20528;-82
2021/12/29 06:42:33;;;;;;;43.88;5.65;;;9.40;86.60;;;;;;5032998;28;20052;-82
2021/12/29 06:45:01;;;;;;;33.78;5.30;;;9.40;86.60;;;;;;5032723;28;20049;-82
2021/12/29 06:47:28;;;;;;;38.78;5.75;;;9.40;86.60;;;;;;5032887;28;20049;-82
2021/12/29 06:49:55;;;;;;;39.67;5.97;;;9.40;86.60;;;;;;5033403;28;20037;-82
2021/12/29 06:52:22;;;;;;;39.00;6.00;;;9.40;86.60;;;;;;5033299;28;20083;-82
2021/12/29 06:54:49;;;;;;;36.58;7.03;;;9.40;86.60;;;;;;5033302;28;20037;-82
2021/12/29 06:57:16;;;;;;;34.83;5.97;;;9.40;86.70;;;;;;5032332;28;20049;-82
2021/12/29 06:59:44;;;;;;;39.60;7.40;;;9.40;86.70;;;;;;5033041;28;20045;-82
2021/12/29 07:02:12;;;;;;;45.20;7.20;;;9.40;86.70;;;;;;5032866;28;20410;-82
2021/12/29 07:04:39;;;;;;;44.10;7.07;;;9.40;86.70;;;;;;5033029;28;20069;-82
2021/12/29 07:07:06;;;;;;;57.65;8.77;;;9.40;86.70;;;;;;5033035;28;20502;-82
2021/12/29 07:09:33;;;;;;;43.25;7.55;;;9.40;86.70;;;;;;5033251;28;20042;-82
2021/12/29 07:12:01;;;;;;;49.92;7.38;;;9.40;86.70;;;;;;5032306;28;20042;-82
2021/12/29 07:14:28;;;;;;;55.83;8.32;;;9.40;86.70;;;;;;5032952;28;20053;-82
2021/12/29 07:16:55;;;;;;;45.05;7.55;;;9.40;86.80;;;;;;5032668;28;20048;-82
2021/12/29 07:19:22;;;;;;;36.92;7.03;;;9.40;86.80;;;;;;5033002;28;20056;-82
2021/12/29 07:21:50;;;;;;;37.28;6.95;;;9.40;86.70;;;;;;5033107;28;20115;-82
2021/12/29 07:24:17;;;;;;;47.38;7.70;;;9.40;86.80;;;;;;5032193;28;20068;-82
2021/12/29 07:26:44;;;;;;;41.58;7.00;;;9.40;86.70;;;;;;5032674;28;20052;-82
2021/12/29 07:29:12;;;;;;;34.72;7.13;;;9.40;86.80;;;;;;5032886;28;20055;-83
2021/12/29 07:31:43;;;;;;;37.92;6.88;;;9.40;86.80;;;;;;5032549;28;20045;-82
2021/12/29 07:34:22;;;;;;;38.55;6.97;;;9.40;86.80;;;;;;5032941;28;20045;-82
2021/12/29 07:36:50;;;;;;;34.08;5.88;;;9.40;86.80;;;;;;5031367;28;20042;-82
2021/12/29 07:39:17;;;;;;;34.33;6.65;;;9.40;86.80;;;;;;5030252;28;20052;-82
2021/12/29 07:41:46;;;;;;;31.98;6.32;;;9.50;86.80;;;;;;5031860;28;20046;-81
2021/12/29 07:44:18;;;;;;;39.03;6.13;;;9.40;86.80;;;;;;5030724;28;20045;-82
2021/12/29 07:46:48;;;;;;;45.55;6.20;;;9.40;86.80;;;;;;5031857;28;20041;-82
2021/12/29 07:49:16;;;;;;;29.90;5.45;;;9.50;86.80;;;;;;5032440;28;20484;-82
2021/12/29 07:51:43;;;;;;;29.50;6.03;;;9.40;86.80;;;;;;5032001;28;22562;-82
2021/12/29 07:54:13;;;;;;;32.25;6.10;;;9.40;86.80;;;;;;5031354;28;20049;-82
2021/12/29 07:56:41;;;;;;;37.55;6.05;;;9.40;86.90;;;;;;5036084;28;20052;-82
2021/12/29 07:59:09;;;;;;;28.40;4.97;;;9.40;86.80;;;;;;5035897;28;20068;-82
2021/12/29 08:01:36;;;;;;;27.95;4.75;;;9.50;86.90;;;;;;5035634;28;20049;-82
2021/12/29 08:04:03;;;;;;;22.10;4.55;;;9.40;86.90;;;;;;5036229;28;20046;-82
2021/12/29 08:06:31;;;;;;;26.25;5.32;;;9.40;86.90;;;;;;5035545;28;20059;-82
2021/12/29 08:08:58;;;;;;;24.08;4.78;;;9.40;86.90;;;;;;5035036;28;20533;-82
2021/12/29 08:11:25;;;;;;;23.55;5.00;;;9.40;86.90;;;;;;5035906;28;20048;-82
2021/12/29 08:13:52;;;;;;;29.08;4.63;;;9.50;86.90;;;;;;5035703;28;20060;-82
2021/12/29 08:16:19;;;;;;;20.85;4.28;;;9.40;86.90;;;;;;5035263;28;20509;-83
2021/12/29 08:18:46;;;;;;;23.33;4.90;;;9.50;86.90;;;;;;5035661;28;20045;-83
2021/12/29 08:21:13;;;;;;;26.77;5.07;;;9.40;86.90;;;;;;5034494;28;20056;-83
2021/12/29 08:23:40;;;;;;;18.85;4.18;;;9.40;86.90;;;;;;5035892;28;20049;-83
2021/12/29 08:26:07;;;;;;;20.20;4.32;;;9.40;86.90;;;;;;5035566;28;20046;-82
2021/12/29 08:28:34;;;;;;;27.58;4.68;;;9.40;86.90;;;;;;5034070;28;20050;-82
2021/12/29 08:31:03;;;;;;;19.23;3.97;;;9.40;86.90;;;;;;5035052;28;20502;-83
2021/12/29 08:33:30;;;;;;;24.27;4.75;;;9.50;86.90;;;;;;5035503;28;20063;-82
2021/12/29 08:35:57;;;;;;;22.77;4.43;;;9.40;86.90;;;;;;5034450;28;20050;-82
2021/12/29 08:38:24;;;;;;;21.77;4.40;;;9.40;86.90;;;;;;5035486;28;20045;-82
2021/12/29 08:40:51;;;;;;;28.98;4.50;;;9.50;86.90;;;;;;5035275;28;20049;-82
2021/12/29 08:43:18;;;;;;;23.52;4.55;;;9.50;86.90;;;;;;5035003;28;20532;-82
2021/12/29 08:45:46;;;;;;;30.23;4.93;;;9.40;86.90;;;;;;5035430;28;20052;-82
2021/12/29 08:48:14;;;;;;;26.55;4.47;;;9.40;86.90;;;;;;5034175;28;20095;-82
2021/12/29 08:50:42;;;;;;;25.42;4.93;;;9.40;87.00;;;;;;5034972;28;20052;-83
2021/12/29 08:53:11;;;;;;;22.50;4.35;;;9.40;86.90;;;;;;5035155;28;20055;-83
2021/12/29 08:55:46;;;;;;;26.20;4.38;;;9.40;87.00;;;;;;5035013;28;20504;-82
2021/12/29 08:58:15;;;;;;;22.83;4.32;;;9.40;87.00;;;;;;5034448;28;20080;-83
2021/12/29 09:00:43;;;;;;;29.05;4.88;;;9.40;87.00;;;;;;5034826;28;20044;-82
2021/12/29 09:03:11;;;;;;;21.35;4.13;;;9.50;87.00;;;;;;5034168;28;20107;-82
2021/12/29 09:05:38;;;;;;;22.52;5.45;;;9.40;87.00;;;;;;5033557;28;20513;-82
2021/12/29 09:08:06;;;;;;;26.40;5.38;;;9.40;87.00;;;;;;5034871;28;20399;-82
2021/12/29 09:10:33;;;;;;;29.00;5.13;;;9.40;87.00;;;;;;5034753;28;20411;-82
2021/12/29 09:13:01;;;;;;;24.30;4.72;;;9.40;87.00;;;;;;5034474;28;20083;-82
2021/12/29 09:15:28;;;;;;;23.45;4.72;;;9.50;87.00;;;;;;5034753;28;20529;-82
2021/12/29 09:17:55;;;;;;;22.80;4.70;;;9.40;87.00;;;;;;5033454;28;20053;-83
2021/12/29 09:20:27;;;;;;;23.10;4.60;;;9.40;87.10;;;;;;5034424;28;20047;-83
2021/12/29 09:23:00;;;;;;;33.08;4.60;;;9.50;87.10;;;;;;5034750;28;20133;-82
2021/12/29 09:25:27;;;;;;;32.03;4.53;;;9.50;87.10;;;;;;5034085;28;20518;-83
2021/12/29 09:27:54;;;;;;;29.90;4.75;;;9.50;87.10;;;;;;5033696;28;20046;-82
2021/12/29 09:30:24;;;;;;;19.52;3.92;;;9.40;87.10;;;;;;5034354;28;20057;-83
2021/12/29 09:32:52;;;;;;;21.55;4.78;;;9.50;87.10;;;;;;5031726;28;20406;-83
2021/12/29 09:35:20;;;;;;;20.83;3.72;;;9.50;87.10;;;;;;5034258;28;20049;-83
2021/12/29 09:37:48;;;;;;;19.83;3.88;;;9.50;87.10;;;;;;5034473;28;20047;-82
2021/12/29 09:40:17;;;;;;;25.58;3.80;;;9.50;87.10;;;;;;5034231;28;20051;-83
2021/12/29 09:42:45;;;;;;;18.20;3.80;;;9.50;87.20;;;;;;5033652;28;20053;-83
2021/12/29 09:45:13;;;;;;;23.02;4.28;;;9.50;87.20;;;;;;5033229;28;20391;-82
2021/12/29 09:47:40;;;;;;;21.92;4.45;;;9.50;87.20;;;;;;5034210;28;20848;-82
2021/12/29 09:50:11;;;;;;;14.15;3.92;;;9.50;87.20;;;;;;5033678;28;20396;-83
2021/12/29 09:52:39;;;;;;;17.48;3.45;;;9.50;87.20;;;;;;5034142;28;20052;-83
2021/12/29 09:55:10;;;;;;;12.95;3.28;;;9.50;87.20;;;;;;5034084;28;20045;-83
2021/12/29 09:57:44;;;;;;;15.88;2.95;;;9.50;87.20;;;;;;5017677;28;20425;-83
2021/12/29 10:00:19;;;;;;;22.25;4.05;;;9.50;87.30;;;;;;5029304;28;20053;-83
2021/12/29 10:02:47;;;;;;;20.75;3.70;;;9.50;87.30;;;;;;5033065;28;20041;-83
2021/12/29 10:05:16;;;;;;;15.48;3.65;;;9.60;87.30;;;;;;5033354;28;20053;-83
2021/12/29 10:07:43;;;;;;;15.80;3.33;;;9.50;87.30;;;;;;5033613;28;20498;-83
2021/12/29 10:10:18;;;;;;;13.88;3.60;;;9.60;87.30;;;;;;5033742;28;20045;-82
2021/12/29 10:12:47;;;;;;;14.27;4.13;;;9.60;87.30;;;;;;5019052;28;20052;-82
2021/12/29 10:15:15;;;;;;;16.40;3.70;;;9.60;87.30;;;;;;5032772;28;20107;-83
2021/12/29 10:17:42;;;;;;;19.02;4.03;;;9.60;87.30;;;;;;5033190;28;20052;-82
2021/12/29 10:20:14;;;;;;;16.65;3.78;;;9.60;87.40;;;;;;5033327;28;20079;-83
2021/12/29 10:22:41;;;;;;;16.60;3.70;;;9.60;87.40;;;;;;5033392;28;20041;-82
2021/12/29 10:25:13;;;;;;;17.00;3.83;;;9.60;87.40;;;;;;5033428;28;20136;-82
2021/12/29 10:27:41;;;;;;;14.95;4.70;;;9.60;87.40;;;;;;5017782;28;20063;-83
2021/12/29 10:30:20;;;;;;;15.43;4.63;;;9.60;87.40;;;;;;5032596;28;20442;-82
2021/12/29 10:32:48;;;;;;;19.85;4.65;;;9.60;87.40;;;;;;5034247;28;20049;-83
2021/12/29 10:35:32;;;;;;;17.50;4.35;;;9.60;87.40;;;;;;5032991;28;20046;-83
2021/12/29 10:38:14;;;;;;;16.20;4.82;;;9.70;87.50;;;;;;5033238;28;20037;-83
2021/12/29 10:40:41;;;;;;;14.65;4.93;;;9.70;87.50;;;;;;5032469;28;20132;-83
2021/12/29 10:43:08;;;;;;;14.82;4.40;;;9.70;87.50;;;;;;5033242;28;20077;-83
2021/12/29 10:45:39;;;;;;;15.27;4.78;;;9.70;87.50;;;;;;5033301;28;20052;-82
2021/12/29 10:48:25;;;;;;;13.50;4.88;;;9.70;87.60;;;;;;5027637;28;20100;-83
2021/12/29 10:51:08;;;;;;;11.85;4.65;;;9.70;87.60;;;;;;5030192;28;20054;-83
2021/12/29 10:53:39;;;;;;;12.38;4.13;;;9.80;87.60;;;;;;5034448;28;20059;-83
2021/12/29 10:56:18;;;;;;;12.70;4.15;;;9.80;87.70;;;;;;5032160;28;20518;-83
2021/12/29 10:58:45;;;;;;;9.63;4.85;;;9.80;87.70;;;;;;5032889;28;20042;-83
2021/12/29 11:01:15;;;;;;;12.70;5.25;;;9.80;87.70;;;;;;5032699;28;20045;-83
2021/12/29 11:03:55;;;;;;;14.43;5.07;;;9.90;87.70;;;;;;5017587;28;20045;-83
2021/12/29 11:06:26;;;;;;;12.35;5.15;;;9.90;87.80;;;;;;5032284;28;20053;-83
2021/12/29 11:08:54;;;;;;;12.80;5.10;;;9.90;87.80;;;;;;5029747;28;20049;-83
2021/12/29 11:11:37;;;;;;;10.63;4.78;;;9.90;87.80;;;;;;5032308;28;20041;-83
2021/12/29 11:14:13;;;;;;;16.88;5.57;;;9.90;87.90;;;;;;5031527;28;20049;-83
2021/12/29 11:16:43;;;;;;;9.68;4.57;;;9.90;87.90;;;;;;5032552;28;20048;-83
2021/12/29 11:19:13;;;;;;;7.78;4.53;;;10.00;87.90;;;;;;5032048;28;20520;-83
2021/12/29 11:21:42;;;;;;;9.82;5.13;;;10.00;87.90;;;;;;5017275;28;20041;-83
2021/12/29 11:24:23;;;;;;;11.57;4.85;;;10.00;87.90;;;;;;5025379;28;20184;-83
2021/12/29 11:26:51;;;;;;;12.10;5.80;;;10.00;88.00;;;;;;5015944;28;20125;-83
2021/12/29 11:29:21;;;;;;;8.82;4.82;;;10.00;88.00;;;;;;5018170;28;20049;-83
2021/12/29 11:32:00;;;;;;;8.95;4.47;;;10.10;88.00;;;;;;5022883;28;20053;-83
2021/12/29 11:34:28;;;;;;;7.53;4.47;;;10.10;88.00;;;;;;5029226;28;20065;-83
2021/12/29 11:37:07;;;;;;;10.50;5.30;;;10.20;88.00;;;;;;5018199;28;20120;-83
2021/12/29 11:39:38;;;;;;;7.65;4.15;;;10.20;88.10;;;;;;5015803;28;20045;-83
2021/12/29 11:42:05;;;;;;;9.60;4.63;;;10.20;88.10;;;;;;5019892;28;20042;-84
2021/12/29 11:44:33;;;;;;;9.00;4.65;;;10.20;88.10;;;;;;5020068;28;20060;-83
2021/12/29 11:47:00;;;;;;;7.18;4.60;;;10.30;88.10;;;;;;5020075;28;20041;-83
2021/12/29 11:49:27;;;;;;;8.20;4.47;;;10.30;88.10;;;;;;5019997;28;20046;-84
2021/12/29 11:52:12;;;;;;;10.32;4.38;;;10.30;88.10;;;;;;5017127;28;20049;-84
2021/12/29 11:54:58;;;;;;;7.72;4.13;;;10.30;88.20;;;;;;5015406;28;20053;-83
2021/12/29 11:57:27;;;;;;;7.95;4.20;;;10.40;88.20;;;;;;5031058;28;20045;-83
2021/12/29 12:00:17;;;;;;;7.47;4.20;;;10.40;88.20;;;;;;5020277;28;20050;-83
2021/12/29 12:02:46;;;;;;;7.10;4.22;;;10.40;88.20;;;;;;5030294;28;20048;-84
2021/12/29 12:05:32;;;;;;;7.57;4.18;;;10.40;88.30;;;;;;5028628;28;20045;-83
2021/12/29 12:08:13;;;;;;;7.97;4.07;;;10.50;88.30;;;;;;5036073;28;20167;-83
2021/12/29 12:10:41;;;;;;;7.38;4.32;;;10.50;88.30;;;;;;5036330;28;20050;-83
2021/12/29 12:13:22;;;;;;;6.82;4.45;;;10.60;88.30;;;;;;5036304;28;20425;-83
2021/12/29 12:15:50;;;;;;;7.90;4.15;;;10.60;88.40;;;;;;5021920;28;20045;-83
2021/12/29 12:18:17;;;;;;;7.40;4.50;;;10.70;88.40;;;;;;5035354;28;20050;-84
2021/12/29 12:20:50;;;;;;;7.95;5.07;;;10.70;88.40;;;;;;5035970;28;20050;-84
2021/12/29 12:23:28;;;;;;;7.40;5.10;;;10.70;88.50;;;;;;5036031;28;20502;-84
2021/12/29 12:26:10;;;;;;;7.63;4.43;;;10.80;88.50;;;;;;5035810;28;20042;-82
2021/12/29 12:28:48;;;;;;;8.13;5.05;;;10.90;88.60;;;;;;5035788;28;20502;-83
2021/12/29 12:31:30;;;;;;;7.43;4.20;;;10.90;88.60;;;;;;5035978;28;20055;-83
2021/12/29 12:34:10;;;;;;;6.00;3.88;;;10.90;88.60;;;;;;5035947;28;20052;-83
2021/12/29 12:36:42;;;;;;;6.85;3.92;;;11.00;88.60;;;;;;5035504;28;20055;-84
2021/12/29 12:39:18;;;;;;;6.53;4.18;;;11.00;88.60;;;;;;5031210;28;20429;-84
2021/12/29 12:41:48;;;;;;;5.40;3.50;;;11.10;88.60;;;;;;5035633;28;20099;-83
2021/12/29 12:44:19;;;;;;;5.28;3.60;;;11.10;88.70;;;;;;5035751;28;20506;-84
2021/12/29 12:46:49;;;;;;;5.68;3.47;;;11.10;88.70;;;;;;5035560;28;20059;-83
2021/12/29 12:49:25;;;;;;;5.60;3.53;;;11.20;88.70;;;;;;5035501;28;20045;-84
2021/12/29 12:52:02;;;;;;;7.10;3.75;;;11.30;88.70;;;;;;5035320;28;20061;-84
2021/12/29 12:54:35;;;;;;;5.57;3.38;;;11.30;88.70;;;;;;5035767;28;20062;-84
2021/12/29 12:57:04;;;;;;;5.65;3.50;;;11.40;88.70;;;;;;5034754;28;20506;-84
2021/12/29 12:59:38;;;;;;;4.75;2.75;;;11.40;88.70;;;;;;5035477;28;20045;-83
2021/12/29 13:02:15;;;;;;;5.75;2.83;;;11.40;88.70;;;;;;5035376;28;20041;-83
2021/12/29 13:05:08;;;;;;;7.40;2.80;;;11.40;88.70;;;;;;5034720;28;20525;-83